createdAt,value
2019-04-27T06:50:08.620Z,0.00
2019-04-27T06:51:09.663Z,0.00
2019-04-27T06:52:08.704Z,0.00
2019-04-27T06:53:09.109Z,0.00
2019-04-27T06:54:04.470Z,0.00
2019-04-27T06:55:06.291Z,219.38
2019-04-27T06:56:04.655Z,956.25
2019-04-27T06:57:04.590Z,967.50
2019-04-27T06:58:13.628Z,990.00
2019-04-27T06:59:04.462Z,1001.25
2019-04-27T07:01:26.942Z,1012.50
2019-04-27T07:02:34.542Z,1018.12
2019-04-27T07:03:34.850Z,1063.12
2019-04-27T07:04:34.919Z,1063.12
2019-04-27T07:06:52.271Z,1051.88
2019-04-27T07:08:49.804Z,1096.88
2019-04-27T07:10:58.759Z,1113.75
2019-04-27T07:11:59.113Z,1141.88
2019-04-27T07:12:57.132Z,1141.88
2019-04-27T07:15:08.771Z,1181.25
2019-04-27T07:17:15.968Z,1220.62
2019-04-27T07:19:25.762Z,1203.75
2019-04-27T07:20:33.670Z,1226.25
2019-04-27T07:21:34.238Z,1175.62
2019-04-27T07:22:25.773Z,1175.62
2019-04-27T07:23:33.860Z,1220.62
2019-04-27T07:25:35.565Z,1282.50
2019-04-27T07:26:43.502Z,1271.25
2019-04-27T07:27:44.722Z,1288.12
2019-04-27T07:28:35.498Z,1299.38
2019-04-27T07:29:35.486Z,1265.62
2019-04-27T07:30:43.566Z,1265.62
2019-04-27T07:31:35.485Z,1293.75
2019-04-27T07:32:35.455Z,1310.62
2019-04-27T07:33:35.471Z,1333.12
2019-04-27T07:34:35.454Z,1338.75
2019-04-27T07:35:35.435Z,1350.00
2019-04-27T07:36:35.393Z,1366.88
2019-04-27T07:37:35.381Z,1372.50
2019-04-27T07:38:35.371Z,1389.38
2019-04-27T07:39:35.425Z,1389.38
2019-04-27T07:40:35.343Z,1395.00
2019-04-27T07:41:35.346Z,1417.50
2019-04-27T07:42:35.322Z,1395.00
2019-04-27T07:43:35.324Z,1361.25
2019-04-27T07:44:35.316Z,1406.25
2019-04-27T07:45:35.341Z,2874.38
2019-04-27T07:46:35.291Z,2874.38
2019-04-27T07:47:35.283Z,2874.38
2019-04-27T07:48:35.259Z,2874.38
2019-04-27T07:49:35.261Z,2874.38
2019-04-27T07:50:35.261Z,2874.38
2019-04-27T07:51:35.230Z,2874.38
2019-04-27T07:52:37.874Z,2874.38
2019-04-27T07:53:35.216Z,2874.38
2019-04-27T07:54:35.211Z,2874.38
2019-04-27T07:55:35.233Z,2874.38
2019-04-27T07:56:35.180Z,2874.38
2019-04-27T07:57:35.182Z,2874.38
2019-04-27T07:58:35.142Z,2874.38
2019-04-27T07:59:35.140Z,2874.38
2019-04-27T08:00:35.149Z,2874.38
2019-04-27T08:01:35.153Z,2874.38
2019-04-27T08:02:35.122Z,2874.38
2019-04-27T08:03:35.139Z,2874.38
2019-04-27T08:04:35.081Z,2874.38
2019-04-27T08:05:35.103Z,2874.38
2019-04-27T08:06:35.065Z,2874.38
2019-04-27T08:07:35.089Z,2874.38
2019-04-27T08:08:35.058Z,2874.38
2019-04-27T08:09:35.030Z,2874.38
2019-04-27T08:10:35.041Z,2874.38
2019-04-27T08:11:35.011Z,2874.38
2019-04-27T08:12:35.043Z,2874.38
2019-04-27T08:13:35.074Z,2874.38
2019-04-27T08:14:34.991Z,2874.38
2019-04-27T08:15:34.981Z,2874.38
2019-04-27T08:16:34.986Z,2874.38
2019-04-27T08:17:34.949Z,2874.38
2019-04-27T08:18:34.967Z,2874.38
2019-04-27T08:19:34.969Z,2874.38
2019-04-27T08:20:34.939Z,2874.38
2019-04-27T08:21:43.600Z,2874.38
2019-04-27T08:22:35.909Z,2874.38
2019-04-27T08:23:34.899Z,2874.38
2019-04-27T08:24:34.880Z,2874.38
2019-04-27T08:25:44.446Z,2874.38
2019-04-27T08:26:34.901Z,2874.38
2019-04-27T08:27:34.841Z,2874.38
2019-04-27T08:28:34.846Z,2874.38
2019-04-27T08:29:34.836Z,2874.38
2019-04-27T08:30:35.030Z,2874.38
2019-04-27T08:31:34.854Z,2874.38
2019-04-27T08:32:34.826Z,2874.38
2019-04-27T08:33:34.789Z,2874.38
2019-04-27T08:34:34.807Z,2874.38
2019-04-27T08:35:34.772Z,2874.38
2019-04-27T08:36:34.777Z,2874.38
2019-04-27T08:37:34.767Z,2874.38
2019-04-27T08:38:34.779Z,2874.38
2019-04-27T08:39:34.741Z,2874.38
2019-04-27T08:40:34.721Z,2874.38
2019-04-27T08:41:34.760Z,2874.38
2019-04-27T08:42:34.708Z,2874.38
2019-04-27T08:43:34.738Z,2874.38
2019-04-27T08:44:34.709Z,2874.38
2019-04-27T08:45:34.714Z,2874.38
2019-04-27T08:46:34.706Z,2874.38
2019-04-27T08:47:34.642Z,2874.38
2019-04-27T08:48:36.894Z,2874.38
2019-04-27T08:49:34.648Z,2874.38
2019-04-27T08:50:34.660Z,2874.38
2019-04-27T08:51:34.670Z,2874.38
2019-04-27T08:52:34.664Z,2874.38
2019-04-27T08:53:34.584Z,2874.38
2019-04-27T08:54:34.635Z,2874.38
2019-04-27T08:55:34.571Z,1063.12
2019-04-27T08:56:34.568Z,2874.38
2019-04-27T08:57:34.580Z,2874.38
2019-04-27T08:58:34.516Z,2874.38
2019-04-27T08:59:34.531Z,2874.38
2019-04-27T09:00:34.498Z,2874.38
2019-04-27T09:01:34.486Z,2874.38
2019-04-27T09:02:44.527Z,2874.38
2019-04-27T09:03:35.500Z,2874.38
2019-04-27T09:04:34.451Z,2874.38
2019-04-27T09:05:34.448Z,2874.38
2019-04-27T09:06:37.282Z,2874.38
2019-04-27T09:07:34.467Z,2874.38
2019-04-27T09:08:34.462Z,2874.38
2019-04-27T09:09:34.440Z,2874.38
2019-04-27T09:10:34.403Z,2874.38
2019-04-27T09:11:34.423Z,2874.38
2019-04-27T09:12:34.387Z,2874.38
2019-04-27T09:13:34.396Z,2874.38
2019-04-27T09:14:34.374Z,2874.38
2019-04-27T09:15:34.374Z,2874.38
2019-04-27T09:16:34.347Z,2874.38
2019-04-27T09:17:34.349Z,2874.38
2019-04-27T09:18:34.309Z,2874.38
2019-04-27T09:19:34.345Z,2874.38
2019-04-27T09:20:34.301Z,2874.38
2019-04-27T09:21:34.350Z,2874.38
2019-04-27T09:22:34.276Z,2874.38
2019-04-27T09:23:34.264Z,2874.38
2019-04-27T09:24:34.302Z,2874.38
2019-04-27T09:25:34.236Z,2874.38
2019-04-27T09:26:34.216Z,2874.38
2019-04-27T09:27:34.206Z,691.88
2019-04-27T09:28:34.234Z,2874.38
2019-04-27T09:29:34.240Z,2874.38
2019-04-27T09:30:34.217Z,2874.38
2019-04-27T09:31:34.187Z,2874.38
2019-04-27T09:32:34.186Z,2874.38
2019-04-27T09:33:34.192Z,804.38
2019-04-27T09:34:34.223Z,2874.38
2019-04-27T09:35:35.616Z,2874.38
2019-04-27T09:36:34.106Z,4314.38
2019-04-27T09:37:34.204Z,2874.38
2019-04-27T09:38:35.718Z,2874.38
2019-04-27T09:39:35.767Z,2874.38
2019-04-27T09:40:35.917Z,2874.38
2019-04-27T09:41:34.078Z,770.62
2019-04-27T09:42:34.048Z,742.50
2019-04-27T09:43:34.079Z,607.50
2019-04-27T09:44:34.035Z,568.12
2019-04-27T09:45:34.040Z,534.38
2019-04-27T09:46:34.075Z,545.62
2019-04-27T09:47:34.028Z,568.12
2019-04-27T09:48:34.010Z,590.62
2019-04-27T09:49:33.998Z,624.38
2019-04-27T09:50:35.943Z,2874.38
2019-04-27T09:51:33.963Z,1051.88
2019-04-27T09:52:35.790Z,770.62
2019-04-27T09:53:33.922Z,2874.38
2019-04-27T09:54:33.929Z,2874.38
2019-04-27T09:55:33.928Z,1198.12
2019-04-27T09:56:33.934Z,1074.38
2019-04-27T09:57:33.883Z,2874.38
2019-04-27T09:58:33.928Z,860.62
2019-04-27T09:59:33.868Z,646.88
2019-04-27T10:00:33.862Z,511.88
2019-04-27T10:01:36.035Z,421.88
2019-04-27T10:02:33.858Z,343.12
2019-04-27T10:03:33.820Z,286.88
2019-04-27T10:04:35.567Z,253.12
2019-04-27T10:05:33.806Z,241.88
2019-04-27T10:06:33.817Z,253.12
2019-04-27T10:07:33.781Z,258.75
2019-04-27T10:08:33.770Z,270.00
2019-04-27T10:09:33.802Z,292.50
2019-04-27T10:10:33.800Z,315.00
2019-04-27T10:11:35.492Z,343.12
2019-04-27T10:12:34.492Z,382.50
2019-04-27T10:13:33.709Z,416.25
2019-04-27T10:14:33.697Z,455.62
2019-04-27T10:15:35.552Z,461.25
2019-04-27T10:16:33.706Z,438.75
2019-04-27T10:17:33.673Z,399.38
2019-04-27T10:18:33.675Z,371.25
2019-04-27T10:19:33.693Z,371.25
2019-04-27T10:20:38.296Z,348.75
2019-04-27T10:21:36.441Z,286.88
2019-04-27T10:22:41.198Z,241.88
2019-04-27T10:23:36.188Z,225.00
2019-04-27T10:24:33.626Z,225.00
2019-04-27T10:25:33.595Z,208.12
2019-04-27T10:26:33.620Z,202.50
2019-04-27T10:27:33.566Z,202.50
2019-04-27T10:28:33.552Z,202.50
2019-04-27T10:29:33.543Z,191.25
2019-04-27T10:30:33.533Z,174.38
2019-04-27T10:31:33.534Z,157.50
2019-04-27T10:32:33.541Z,135.00
2019-04-27T10:33:33.510Z,106.88
2019-04-27T10:34:33.517Z,95.62
2019-04-27T10:35:33.491Z,112.50
2019-04-27T10:36:33.498Z,140.62
2019-04-27T10:37:33.516Z,168.75
2019-04-27T10:38:33.464Z,168.75
2019-04-27T10:39:33.455Z,174.38
2019-04-27T10:40:33.412Z,168.75
2019-04-27T10:41:33.412Z,163.12
2019-04-27T10:42:33.436Z,157.50
2019-04-27T10:43:33.421Z,157.50
2019-04-27T10:44:33.391Z,163.12
2019-04-27T10:45:33.390Z,174.38
2019-04-27T10:46:33.396Z,180.00
2019-04-27T10:47:33.377Z,208.12
2019-04-27T10:48:33.351Z,253.12
2019-04-27T10:49:33.359Z,315.00
2019-04-27T10:50:33.325Z,393.75
2019-04-27T10:51:33.319Z,450.00
2019-04-27T10:52:33.311Z,472.50
2019-04-27T10:53:33.335Z,472.50
2019-04-27T10:54:33.307Z,461.25
2019-04-27T10:55:33.289Z,444.38
2019-04-27T10:56:33.257Z,438.75
2019-04-27T10:57:33.257Z,489.38
2019-04-27T10:58:33.229Z,511.88
2019-04-27T10:59:33.237Z,489.38
2019-04-27T11:00:33.210Z,371.25
2019-04-27T11:01:33.221Z,270.00
2019-04-27T11:02:33.231Z,230.62
2019-04-27T11:03:33.184Z,253.12
2019-04-27T11:04:33.180Z,303.75
2019-04-27T11:05:33.180Z,348.75
2019-04-27T11:06:33.153Z,410.62
2019-04-27T11:07:33.137Z,478.12
2019-04-27T11:08:33.124Z,500.62
2019-04-27T11:09:33.175Z,562.50
2019-04-27T11:10:33.105Z,545.62
2019-04-27T11:11:33.109Z,528.75
2019-04-27T11:12:33.105Z,438.75
2019-04-27T11:13:33.115Z,303.75
2019-04-27T11:14:33.065Z,258.75
2019-04-27T11:15:33.100Z,213.75
2019-04-27T11:16:33.043Z,174.38
2019-04-27T11:17:33.027Z,163.12
2019-04-27T11:18:33.023Z,157.50
2019-04-27T11:19:33.011Z,146.25
2019-04-27T11:20:33.005Z,123.75
2019-04-27T11:21:33.021Z,78.75
2019-04-27T11:22:32.979Z,78.75
2019-04-27T11:23:32.979Z,90.00
2019-04-27T11:24:32.957Z,118.12
2019-04-27T11:25:32.951Z,168.75
2019-04-27T11:26:32.950Z,213.75
2019-04-27T11:27:32.967Z,230.62
2019-04-27T11:28:32.908Z,270.00
2019-04-27T11:29:32.901Z,270.00
2019-04-27T11:30:32.881Z,264.38
2019-04-27T11:31:33.011Z,253.12
2019-04-27T11:32:32.900Z,225.00
2019-04-27T11:33:32.881Z,208.12
2019-04-27T11:34:32.839Z,208.12
2019-04-27T11:35:32.837Z,225.00
2019-04-27T11:36:32.807Z,241.88
2019-04-27T11:37:32.853Z,247.50
2019-04-27T11:38:32.806Z,241.88
2019-04-27T11:39:32.788Z,230.62
2019-04-27T11:40:32.777Z,191.25
2019-04-27T11:41:32.788Z,196.88
2019-04-27T11:42:32.805Z,208.12
2019-04-27T11:43:32.757Z,213.75
2019-04-27T11:44:32.736Z,219.38
2019-04-27T11:45:32.747Z,191.25
2019-04-27T11:46:32.718Z,185.62
2019-04-27T11:47:32.717Z,157.50
2019-04-27T11:48:32.706Z,118.12
2019-04-27T11:49:32.846Z,106.88
2019-04-27T11:50:32.680Z,106.88
2019-04-27T11:51:32.651Z,84.38
2019-04-27T11:52:32.663Z,61.88
2019-04-27T11:53:32.748Z,61.88
2019-04-27T11:54:32.639Z,73.12
2019-04-27T11:55:32.663Z,101.25
2019-04-27T11:56:32.687Z,146.25
2019-04-27T11:57:32.593Z,202.50
2019-04-27T11:58:34.899Z,247.50
2019-04-27T11:59:32.614Z,281.25
2019-04-27T12:00:32.587Z,315.00
2019-04-27T12:01:32.547Z,343.12
2019-04-27T12:02:32.549Z,365.62
2019-04-27T12:03:32.538Z,376.88
2019-04-27T12:04:32.562Z,371.25
2019-04-27T12:05:32.536Z,365.62
2019-04-27T12:06:32.511Z,371.25
2019-04-27T12:07:32.481Z,388.12
2019-04-27T12:08:32.478Z,416.25
2019-04-27T12:09:32.470Z,450.00
2019-04-27T12:10:32.486Z,478.12
2019-04-27T12:11:32.449Z,489.38
2019-04-27T12:12:32.453Z,495.00
2019-04-27T12:13:32.438Z,489.38
2019-04-27T12:14:32.418Z,495.00
2019-04-27T12:15:32.448Z,495.00
2019-04-27T12:16:32.407Z,489.38
2019-04-27T12:17:32.397Z,466.88
2019-04-27T12:18:32.379Z,450.00
2019-04-27T12:19:32.369Z,444.38
2019-04-27T12:20:32.366Z,438.75
2019-04-27T12:21:32.415Z,427.50
2019-04-27T12:22:32.476Z,421.88
2019-04-27T12:23:35.490Z,416.25
2019-04-27T12:24:32.439Z,416.25
2019-04-27T12:25:32.298Z,410.62
2019-04-27T12:26:32.305Z,410.62
2019-04-27T12:27:32.292Z,405.00
2019-04-27T12:28:32.275Z,393.75
2019-04-27T12:29:32.258Z,376.88
2019-04-27T12:30:32.270Z,354.38
2019-04-27T12:31:32.264Z,348.75
2019-04-27T12:32:32.224Z,337.50
2019-04-27T12:33:32.231Z,320.62
2019-04-27T12:34:32.233Z,303.75
2019-04-27T12:35:32.234Z,292.50
2019-04-27T12:36:32.242Z,281.25
2019-04-27T12:37:32.206Z,270.00
2019-04-27T12:38:32.194Z,247.50
2019-04-27T12:39:32.199Z,230.62
2019-04-27T12:40:32.171Z,230.62
2019-04-27T12:41:32.136Z,225.00
2019-04-27T12:42:32.134Z,225.00
2019-04-27T12:43:32.148Z,219.38
2019-04-27T12:44:32.117Z,225.00
2019-04-27T12:45:32.080Z,230.62
2019-04-27T12:46:32.096Z,253.12
2019-04-27T12:47:32.103Z,264.38
2019-04-27T12:48:32.091Z,275.62
2019-04-27T12:49:32.042Z,275.62
2019-04-27T12:50:32.051Z,264.38
2019-04-27T12:51:32.059Z,258.75
2019-04-27T12:52:32.062Z,258.75
2019-04-27T12:53:32.044Z,264.38
2019-04-27T12:54:32.113Z,270.00
2019-04-27T12:55:32.011Z,281.25
2019-04-27T12:56:32.004Z,286.88
2019-04-27T12:57:31.990Z,292.50
2019-04-27T12:58:31.962Z,292.50
2019-04-27T12:59:31.978Z,292.50
2019-04-27T13:00:32.000Z,292.50
2019-04-27T13:01:31.913Z,298.12
2019-04-27T13:02:31.897Z,309.38
2019-04-27T13:03:31.913Z,320.62
2019-04-27T13:04:31.884Z,337.50
2019-04-27T13:05:31.899Z,354.38
2019-04-27T13:06:31.858Z,371.25
2019-04-27T13:07:31.864Z,388.12
2019-04-27T13:08:31.832Z,393.75
2019-04-27T13:09:31.819Z,399.38
2019-04-27T13:10:31.863Z,399.38
2019-04-27T13:11:31.798Z,399.38
2019-04-27T13:12:31.798Z,393.75
2019-04-27T13:13:31.808Z,382.50
2019-04-27T13:14:31.863Z,376.88
2019-04-27T13:15:31.778Z,376.88
2019-04-27T13:16:31.756Z,376.88
2019-04-27T13:17:31.732Z,376.88
2019-04-27T13:18:31.726Z,382.50
2019-04-27T13:19:31.735Z,376.88
2019-04-27T13:20:31.735Z,376.88
2019-04-27T13:21:31.743Z,382.50
2019-04-27T13:22:31.719Z,388.12
2019-04-27T13:23:31.693Z,399.38
2019-04-27T13:24:31.653Z,416.25
2019-04-27T13:25:31.649Z,427.50
2019-04-27T13:26:31.648Z,438.75
2019-04-27T13:27:31.654Z,444.38
2019-04-27T13:28:31.619Z,455.62
2019-04-27T13:29:31.597Z,466.88
2019-04-27T13:30:31.616Z,483.75
2019-04-27T13:31:31.582Z,500.62
2019-04-27T13:32:31.595Z,511.88
2019-04-27T13:33:31.594Z,528.75
2019-04-27T13:34:31.551Z,540.00
2019-04-27T13:35:33.899Z,556.88
2019-04-27T13:36:33.112Z,568.12
2019-04-27T13:37:31.567Z,573.75
2019-04-27T13:38:31.517Z,585.00
2019-04-27T13:39:31.507Z,596.25
2019-04-27T13:40:31.492Z,613.12
2019-04-27T13:41:32.911Z,624.38
2019-04-27T13:42:31.478Z,630.00
2019-04-27T13:43:31.481Z,641.25
2019-04-27T13:44:31.450Z,652.50
2019-04-27T13:45:31.437Z,669.38
2019-04-27T13:46:31.471Z,691.88
2019-04-27T13:47:31.430Z,714.38
2019-04-27T13:48:31.418Z,742.50
2019-04-27T13:49:31.406Z,776.25
2019-04-27T13:50:31.405Z,810.00
2019-04-27T13:51:31.371Z,838.12
2019-04-27T13:52:31.364Z,843.75
2019-04-27T13:53:31.369Z,826.88
2019-04-27T13:54:31.328Z,793.12
2019-04-27T13:55:31.324Z,793.12
2019-04-27T13:56:31.333Z,793.12
2019-04-27T13:57:31.308Z,781.88
2019-04-27T13:58:31.336Z,770.62
2019-04-27T13:59:31.798Z,765.00
2019-04-27T14:00:32.656Z,765.00
2019-04-27T14:01:31.249Z,725.62
2019-04-27T14:02:32.600Z,708.75
2019-04-27T14:03:31.241Z,585.00
2019-04-27T14:04:31.269Z,511.88
2019-04-27T14:05:31.227Z,427.50
2019-04-27T14:06:31.204Z,315.00
2019-04-27T14:07:31.207Z,219.38
2019-04-27T14:08:31.235Z,135.00
2019-04-27T14:09:31.175Z,39.38
2019-04-27T14:10:31.239Z,33.75
2019-04-27T14:11:31.192Z,61.88
2019-04-27T14:12:31.274Z,90.00
2019-04-27T14:13:31.187Z,118.12
2019-04-27T14:14:31.128Z,123.75
2019-04-27T14:15:31.176Z,123.75
2019-04-27T14:16:31.115Z,129.38
2019-04-27T14:17:31.085Z,135.00
2019-04-27T14:18:31.083Z,140.62
2019-04-27T14:19:31.083Z,146.25
2019-04-27T14:20:31.121Z,157.50
2019-04-27T14:21:32.867Z,157.50
2019-04-27T14:22:31.633Z,163.12
2019-04-27T14:23:31.042Z,174.38
2019-04-27T14:24:32.067Z,174.38
2019-04-27T14:25:31.052Z,174.38
2019-04-27T14:26:30.993Z,174.38
2019-04-27T14:27:31.042Z,168.75
2019-04-27T14:28:31.041Z,163.12
2019-04-27T14:29:30.986Z,151.88
2019-04-27T14:30:30.948Z,140.62
2019-04-27T14:31:30.973Z,140.62
2019-04-27T14:32:30.940Z,135.00
2019-04-27T14:33:31.180Z,146.25
2019-04-27T14:34:30.976Z,146.25
2019-04-27T14:35:30.910Z,151.88
2019-04-27T14:36:30.900Z,163.12
2019-04-27T14:37:30.871Z,163.12
2019-04-27T14:38:30.856Z,168.75
2019-04-27T14:39:30.851Z,163.12
2019-04-27T14:40:30.855Z,168.75
2019-04-27T14:41:30.847Z,174.38
2019-04-27T14:42:30.833Z,180.00
2019-04-27T14:43:30.794Z,180.00
2019-04-27T14:44:30.803Z,196.88
2019-04-27T14:45:30.808Z,208.12
2019-04-27T14:46:30.896Z,230.62
2019-04-27T14:47:30.811Z,241.88
2019-04-27T14:48:30.760Z,264.38
2019-04-27T14:49:30.747Z,275.62
2019-04-27T14:50:30.744Z,275.62
2019-04-27T14:51:30.798Z,275.62
2019-04-27T14:52:30.748Z,281.25
2019-04-27T14:53:30.704Z,275.62
2019-04-27T14:54:45.092Z,275.62
2019-04-27T14:55:31.681Z,270.00
2019-04-27T14:56:30.716Z,264.38
2019-04-27T14:57:30.694Z,264.38
2019-04-27T14:58:30.668Z,264.38
2019-04-27T14:59:30.663Z,264.38
2019-04-27T15:00:30.762Z,253.12
2019-04-27T15:01:30.618Z,241.88
2019-04-27T15:02:30.677Z,236.25
2019-04-27T15:03:30.664Z,230.62
2019-04-27T15:04:31.398Z,219.38
2019-04-27T15:05:30.584Z,202.50
2019-04-27T15:06:30.605Z,185.62
2019-04-27T15:07:30.580Z,174.38
2019-04-27T15:08:30.606Z,163.12
2019-04-27T15:09:30.559Z,151.88
2019-04-27T15:10:32.894Z,135.00
2019-04-27T15:11:31.714Z,135.00
2019-04-27T15:12:32.366Z,129.38
2019-04-27T15:13:30.536Z,118.12
2019-04-27T15:14:31.080Z,112.50
2019-04-27T15:15:32.541Z,112.50
2019-04-27T15:16:30.516Z,112.50
2019-04-27T15:17:30.554Z,112.50
2019-04-27T15:18:30.460Z,112.50
2019-04-27T15:19:30.617Z,106.88
2019-04-27T15:20:32.729Z,101.25
2019-04-27T15:21:34.283Z,101.25
2019-04-27T15:22:31.427Z,106.88
2019-04-27T15:23:31.826Z,129.38
2019-04-27T15:24:31.183Z,123.75
2019-04-27T15:25:35.024Z,146.25
2019-04-27T15:26:31.614Z,191.25
2019-04-27T15:27:37.204Z,225.00
2019-04-27T15:28:32.091Z,247.50
2019-04-27T15:29:30.376Z,241.88
2019-04-27T15:30:30.345Z,225.00
2019-04-27T15:31:30.324Z,213.75
2019-04-27T15:32:33.498Z,191.25
2019-04-27T15:33:30.587Z,174.38
2019-04-27T15:34:30.314Z,157.50
2019-04-27T15:35:30.304Z,151.88
2019-04-27T15:36:30.280Z,163.12
2019-04-27T15:37:34.175Z,174.38
2019-04-27T15:38:31.233Z,191.25
2019-04-27T15:39:30.598Z,202.50
2019-04-27T15:40:30.253Z,213.75
2019-04-27T15:41:31.567Z,213.75
2019-04-27T15:42:30.230Z,213.75
2019-04-27T15:43:30.856Z,202.50
2019-04-27T15:44:30.173Z,196.88
2019-04-27T15:45:30.351Z,191.25
2019-04-27T15:46:33.810Z,196.88
2019-04-27T15:47:30.181Z,196.88
2019-04-27T15:48:33.877Z,202.50
2019-04-27T15:49:30.117Z,208.12
2019-04-27T15:50:32.233Z,213.75
2019-04-27T15:51:30.118Z,219.38
2019-04-27T15:52:33.110Z,230.62
2019-04-27T15:53:30.078Z,241.88
2019-04-27T15:54:32.282Z,258.75
2019-04-27T15:55:34.484Z,270.00
2019-04-27T15:56:35.082Z,281.25
2019-04-27T15:57:30.173Z,292.50
2019-04-27T15:58:30.094Z,298.12
2019-04-27T15:59:30.883Z,303.75
2019-04-27T16:00:31.005Z,303.75
2019-04-27T16:01:35.700Z,298.12
2019-04-27T16:02:31.055Z,286.88
2019-04-27T16:03:31.316Z,281.25
2019-04-27T16:04:29.947Z,270.00
2019-04-27T16:05:32.655Z,258.75
2019-04-27T16:06:29.931Z,247.50
2019-04-27T16:07:32.069Z,241.88
2019-04-27T16:08:29.926Z,236.25
2019-04-27T16:09:29.953Z,236.25
2019-04-27T16:10:32.931Z,230.62
2019-04-27T16:11:30.918Z,225.00
2019-04-27T16:12:29.876Z,213.75
2019-04-27T16:13:32.961Z,213.75
2019-04-27T16:14:29.839Z,208.12
2019-04-27T16:15:29.939Z,202.50
2019-04-27T16:16:33.458Z,196.88
2019-04-27T16:17:31.996Z,202.50
2019-04-27T16:18:32.513Z,202.50
2019-04-27T16:19:29.815Z,208.12
2019-04-27T16:20:33.753Z,208.12
2019-04-27T16:21:31.549Z,213.75
2019-04-27T16:22:29.776Z,213.75
2019-04-27T16:23:29.762Z,213.75
2019-04-27T16:24:29.739Z,213.75
2019-04-27T16:25:31.552Z,213.75
2019-04-27T16:26:30.779Z,208.12
2019-04-27T16:27:31.336Z,196.88
2019-04-27T16:28:29.775Z,191.25
2019-04-27T16:29:31.566Z,185.62
2019-04-27T16:30:29.675Z,174.38
2019-04-27T16:31:32.794Z,168.75
2019-04-27T16:32:29.661Z,163.12
2019-04-27T16:33:29.625Z,151.88
2019-04-27T16:34:33.042Z,140.62
2019-04-27T16:35:30.625Z,135.00
2019-04-27T16:36:29.639Z,123.75
2019-04-27T16:37:29.613Z,112.50
2019-04-27T16:38:33.641Z,112.50
2019-04-27T16:39:30.573Z,101.25
2019-04-27T16:40:30.154Z,95.62
2019-04-27T16:41:33.051Z,90.00
2019-04-27T16:42:30.546Z,84.38
2019-04-27T16:43:32.663Z,78.75
2019-04-27T16:44:29.563Z,73.12
2019-04-27T16:45:29.525Z,67.50
2019-04-27T16:46:29.512Z,61.88
2019-04-27T16:47:29.494Z,61.88
2019-04-27T16:48:34.388Z,61.88
2019-04-27T16:49:30.565Z,56.25
2019-04-27T16:50:29.452Z,56.25
2019-04-27T16:51:35.915Z,50.62
2019-04-27T16:52:30.457Z,50.62
2019-04-27T16:53:36.682Z,50.62
2019-04-27T16:54:30.431Z,50.62
2019-04-27T16:55:34.213Z,50.62
2019-04-27T16:56:30.435Z,50.62
2019-04-27T16:57:32.449Z,50.62
2019-04-27T16:58:31.916Z,45.00
2019-04-27T16:59:43.417Z,45.00
2019-04-27T17:00:30.570Z,45.00
2019-04-27T17:01:30.456Z,45.00
2019-04-27T17:02:29.330Z,45.00
2019-04-27T17:03:31.576Z,45.00
2019-04-27T17:04:31.390Z,45.00
2019-04-27T17:05:34.279Z,45.00
2019-04-27T17:06:30.276Z,45.00
2019-04-27T17:07:37.390Z,45.00
2019-04-27T17:08:30.258Z,45.00
2019-04-27T17:09:29.362Z,45.00
2019-04-27T17:10:29.318Z,50.62
2019-04-27T17:11:29.817Z,50.62
2019-04-27T17:12:34.374Z,50.62
2019-04-27T17:13:30.633Z,45.00
2019-04-27T17:14:34.942Z,45.00
2019-04-27T17:15:30.234Z,45.00
2019-04-27T17:16:33.772Z,45.00
2019-04-27T17:17:29.176Z,45.00
2019-04-27T17:18:30.950Z,45.00
2019-04-27T17:19:30.664Z,50.62
2019-04-27T17:20:29.916Z,50.62
2019-04-27T17:21:29.180Z,56.25
2019-04-27T17:22:29.102Z,61.88
2019-04-27T17:23:31.426Z,67.50
2019-04-27T17:24:31.914Z,73.12
2019-04-27T17:25:30.502Z,73.12
2019-04-27T17:26:30.097Z,78.75
2019-04-27T17:27:31.692Z,78.75
2019-04-27T17:28:29.083Z,84.38
2019-04-27T17:29:29.059Z,90.00
2019-04-27T17:30:30.935Z,90.00
2019-04-27T17:31:30.012Z,95.62
2019-04-27T17:32:31.323Z,101.25
2019-04-27T17:33:28.998Z,106.88
2019-04-27T17:34:29.019Z,101.25
2019-04-27T17:35:28.979Z,106.88
2019-04-27T17:36:29.280Z,112.50
2019-04-27T17:37:33.475Z,112.50
2019-04-27T17:38:30.487Z,118.12
2019-04-27T17:39:29.862Z,118.12
2019-04-27T17:40:29.838Z,118.12
2019-04-27T17:41:29.896Z,118.12
2019-04-27T17:42:30.600Z,112.50
2019-04-27T17:43:28.949Z,112.50
2019-04-27T17:44:28.974Z,112.50
2019-04-27T17:45:30.482Z,112.50
2019-04-27T17:46:29.854Z,106.88
2019-04-27T17:47:29.888Z,106.88
2019-04-27T17:48:28.962Z,106.88
2019-04-27T17:49:28.825Z,101.25
2019-04-27T17:50:29.845Z,101.25
2019-04-27T17:51:30.943Z,101.25
2019-04-27T17:52:29.796Z,95.62
2019-04-27T17:53:29.874Z,95.62
2019-04-27T17:54:29.042Z,90.00
2019-04-27T17:55:28.760Z,90.00
2019-04-27T17:56:35.593Z,90.00
2019-04-27T17:57:30.366Z,84.38
2019-04-27T17:58:28.751Z,78.75
2019-04-27T17:59:28.732Z,78.75
2019-04-27T18:00:33.067Z,73.12
2019-04-27T18:01:31.941Z,73.12
2019-04-27T18:02:29.327Z,67.50
2019-04-27T18:03:38.705Z,67.50
2019-04-27T18:04:28.862Z,61.88
2019-04-27T18:05:28.699Z,61.88
2019-04-27T18:06:29.782Z,56.25
2019-04-27T18:07:30.171Z,56.25
2019-04-27T18:08:29.106Z,50.62
2019-04-27T18:09:43.314Z,50.62
2019-04-27T18:10:29.620Z,50.62
2019-04-27T18:11:28.915Z,45.00
2019-04-27T18:12:28.654Z,45.00
2019-04-27T18:13:28.899Z,39.38
2019-04-27T18:14:32.588Z,39.38
2019-04-27T18:15:38.854Z,33.75
2019-04-27T18:16:34.036Z,33.75
2019-04-27T18:17:30.700Z,28.12
2019-04-27T18:18:28.550Z,28.12
2019-04-27T18:19:28.545Z,22.50
2019-04-27T18:20:28.976Z,22.50
2019-04-27T18:21:28.533Z,22.50
2019-04-27T18:22:39.626Z,22.50
2019-04-27T18:23:28.481Z,16.88
2019-04-27T18:25:44.600Z,16.88
2019-04-27T18:26:49.489Z,16.88
2019-04-27T18:27:45.538Z,16.88
2019-04-27T18:28:45.953Z,16.88
2019-04-27T18:29:45.487Z,16.88
2019-04-27T18:30:44.509Z,16.88
2019-04-27T18:31:46.457Z,16.88
2019-04-27T18:32:45.633Z,16.88
2019-04-27T18:33:44.673Z,16.88
2019-04-27T18:34:45.262Z,11.25
2019-04-27T18:35:44.495Z,11.25
2019-04-27T18:36:44.973Z,11.25
2019-04-27T18:37:44.541Z,11.25
2019-04-27T18:38:44.559Z,11.25
2019-04-27T18:39:45.354Z,11.25
2019-04-27T18:40:45.525Z,5.62
2019-04-27T18:41:49.463Z,5.62
2019-04-27T18:42:45.351Z,5.62
2019-04-27T18:43:50.533Z,5.62
2019-04-27T18:44:45.332Z,5.62
2019-04-27T18:45:45.268Z,5.62
2019-04-27T18:46:44.333Z,0.00
2019-04-27T18:47:44.298Z,0.00
2019-04-27T18:48:44.714Z,0.00
2019-04-27T18:49:44.480Z,0.00
2019-04-27T18:50:48.459Z,0.00
2019-04-27T18:51:45.510Z,0.00
2019-04-27T18:52:47.689Z,0.00
2019-04-27T18:53:45.805Z,0.00
2019-04-27T18:54:44.598Z,0.00
2019-04-27T18:55:44.600Z,0.00
2019-04-27T18:56:44.222Z,0.00
2019-04-27T18:57:46.048Z,0.00
2019-04-27T18:58:45.427Z,0.00
2019-04-27T18:59:44.637Z,0.00
2019-04-27T19:00:44.927Z,0.00
2019-04-27T19:01:44.241Z,0.00
2019-04-27T19:02:44.641Z,0.00
2019-04-27T19:03:44.775Z,0.00
2019-04-27T19:04:46.171Z,0.00
2019-04-27T19:05:44.177Z,0.00
2019-04-27T19:06:44.093Z,0.00
2019-04-27T19:07:44.355Z,0.00
2019-04-27T19:08:44.292Z,0.00
2019-04-27T19:09:44.395Z,0.00
2019-04-27T19:10:44.704Z,0.00
2019-04-27T19:11:54.132Z,0.00
2019-04-27T19:12:45.084Z,0.00
2019-04-27T19:13:44.024Z,0.00
2019-04-27T19:14:44.032Z,0.00
2019-04-27T19:15:44.038Z,0.00
2019-04-27T19:16:44.154Z,0.00
2019-04-27T19:17:43.972Z,0.00
2019-04-27T19:18:44.243Z,0.00
2019-04-27T19:19:43.958Z,0.00
2019-04-27T19:20:44.102Z,0.00
2019-04-27T19:21:43.979Z,0.00
2019-04-27T19:22:44.062Z,0.00
2019-04-27T19:23:44.734Z,0.00
2019-04-27T19:24:43.993Z,0.00
2019-04-27T19:25:43.901Z,0.00
2019-04-27T19:26:44.030Z,0.00
2019-04-27T19:27:43.984Z,0.00
2019-04-27T19:28:44.175Z,0.00
2019-04-27T19:29:43.930Z,0.00
2019-04-27T19:30:43.958Z,0.00